Time;durP1;ratioP1;P1;durP2;ratioP2;P2;SDS_P1;SDS_P2;PMS_P1;PMS_P2;Temp;Humidity;BMP_temperature;BMP_pressure;BME280_temperature;BME280_humidity;BME280_pressure;Samples;Min_cycle;Max_cycle;Signal;HPM_P1;HPM_P2
2022/02/16 00:01:28;;;;;;;;;37.50;30.00;;;;;;;;5032406;28;51598;-50
2022/02/16 00:04:13;;;;;;;;;38.00;29.75;;;;;;;;5043820;28;51434;-52
2022/02/16 00:07:00;;;;;;;;;30.00;24.00;;;;;;;;5050380;28;51950;-48
2022/02/16 00:09:44;;;;;;;;;35.00;29.75;;;;;;;;5046229;28;51241;-54
2022/02/16 00:12:30;;;;;;;;;27.00;25.75;;;;;;;;5041993;28;51067;-53
2022/02/16 00:15:37;;;;;;;;;38.75;29.25;;;;;;;;5049685;28;51335;-50
2022/02/16 00:18:23;;;;;;;;;35.75;30.50;;;;;;;;5042161;28;51100;-51
2022/02/16 00:21:18;;;;;;;;;37.00;30.00;;;;;;;;5055628;28;51210;-50
2022/02/16 00:24:02;;;;;;;;;37.25;30.75;;;;;;;;5042972;28;51192;-50
2022/02/16 00:26:46;;;;;;;;;39.00;29.00;;;;;;;;5046542;28;51077;-51
2022/02/16 00:29:33;;;;;;;;;40.75;30.75;;;;;;;;5047543;28;51289;-53
2022/02/16 00:32:17;;;;;;;;;37.00;29.25;;;;;;;;5040704;28;51118;-47
2022/02/16 00:35:11;;;;;;;;;33.75;30.00;;;;;;;;5045229;28;51190;-52
2022/02/16 00:37:56;;;;;;;;;33.75;29.75;;;;;;;;5043667;28;52080;-53
2022/02/16 00:40:52;;;;;;;;;40.50;30.75;;;;;;;;5046179;28;51036;-47
2022/02/16 00:43:38;;;;;;;;;39.50;30.00;;;;;;;;5054500;28;52738;-49
2022/02/16 00:46:52;;;;;;;;;39.25;32.75;;;;;;;;5049450;28;51261;-50
2022/02/16 00:49:37;;;;;;;;;40.50;30.50;;;;;;;;5046815;28;51238;-49
2022/02/16 00:52:33;;;;;;;;;33.00;28.50;;;;;;;;5048514;28;51190;-51
2022/02/16 00:55:18;;;;;;;;;39.00;31.00;;;;;;;;5044935;28;51056;-53
2022/02/16 00:58:19;;;;;;;;;36.25;31.00;;;;;;;;5040273;28;51543;-52
2022/02/16 01:01:04;;;;;;;;;29.00;24.50;;;;;;;;5043228;28;51428;-49
2022/02/16 01:03:52;;;;;;;;;33.75;29.00;;;;;;;;5048601;28;51566;-51
2022/02/16 01:06:46;;;;;;;;;32.00;29.75;;;;;;;;5045453;28;51219;-46
2022/02/16 01:09:33;;;;;;;;;39.00;30.75;;;;;;;;5044270;28;51136;-51
2022/02/16 01:12:18;;;;;;;;;35.00;29.25;;;;;;;;5044309;28;51108;-49
2022/02/16 01:15:02;;;;;;;;;38.50;29.75;;;;;;;;5023468;28;51178;-52
2022/02/16 01:17:46;;;;;;;;;32.25;27.00;;;;;;;;5041539;28;51173;-49
2022/02/16 01:20:31;;;;;;;;;35.00;29.50;;;;;;;;5043916;28;52566;-52
2022/02/16 01:23:16;;;;;;;;;45.50;32.25;;;;;;;;5050698;28;51449;-51
2022/02/16 01:26:00;;;;;;;;;39.00;30.25;;;;;;;;5040890;28;51205;-53
2022/02/16 01:28:45;;;;;;;;;33.50;29.25;;;;;;;;5053136;28;51073;-50
2022/02/16 01:31:30;;;;;;;;;33.00;31.50;;;;;;;;5042861;28;51562;-50
2022/02/16 01:34:25;;;;;;;;;34.75;30.50;;;;;;;;5039934;28;51281;-50
2022/02/16 01:37:11;;;;;;;;;36.25;30.25;;;;;;;;5055887;28;51102;-49
2022/02/16 01:39:56;;;;;;;;;33.75;24.75;;;;;;;;5049084;28;51188;-51
2022/02/16 01:42:40;;;;;;;;;29.75;28.00;;;;;;;;5045874;28;51103;-51
2022/02/16 01:45:26;;;;;;;;;31.50;27.25;;;;;;;;5042419;28;51159;-49
2022/02/16 01:48:26;;;;;;;;;39.75;31.00;;;;;;;;5039864;28;51395;-50
2022/02/16 01:51:13;;;;;;;;;40.25;28.00;;;;;;;;5043879;28;51718;-51
2022/02/16 01:54:02;;;;;;;;;31.50;27.00;;;;;;;;5041860;28;51578;-48
2022/02/16 01:56:47;;;;;;;;;31.50;28.50;;;;;;;;5041105;28;51108;-45
2022/02/16 01:59:34;;;;;;;;;39.00;31.25;;;;;;;;5039279;28;51103;-51
2022/02/16 02:02:20;;;;;;;;;32.75;28.75;;;;;;;;5041946;28;51517;-48
2022/02/16 02:05:06;;;;;;;;;40.25;30.25;;;;;;;;5043025;28;51691;-51
2022/02/16 02:07:53;;;;;;;;;38.50;29.75;;;;;;;;5038040;28;51183;-50
2022/02/16 02:10:38;;;;;;;;;35.25;30.25;;;;;;;;5045001;28;52588;-50
2022/02/16 02:13:25;;;;;;;;;41.00;32.25;;;;;;;;5041484;28;51329;-47
2022/02/16 02:16:12;;;;;;;;;30.75;29.25;;;;;;;;5036509;28;51239;-49
2022/02/16 02:18:57;;;;;;;;;35.75;29.75;;;;;;;;5055464;28;51576;-51
2022/02/16 02:21:46;;;;;;;;;32.75;30.00;;;;;;;;5047503;28;51044;-53
2022/02/16 02:24:31;;;;;;;;;33.00;28.75;;;;;;;;5040471;28;52105;-47
2022/02/16 02:27:26;;;;;;;;;40.25;31.25;;;;;;;;5040895;28;51136;-53
2022/02/16 02:30:14;;;;;;;;;39.00;31.50;;;;;;;;5054600;28;51162;-52
2022/02/16 02:32:57;;;;;;;;;34.00;23.50;;;;;;;;5042372;28;51123;-47
2022/02/16 02:35:42;;;;;;;;;42.50;31.50;;;;;;;;5040698;28;51176;-50
2022/02/16 02:38:28;;;;;;;;;38.75;28.75;;;;;;;;5049912;28;51547;-52
2022/02/16 02:41:16;;;;;;;;;32.50;27.75;;;;;;;;5038911;28;51371;-52
2022/02/16 02:44:01;;;;;;;;;37.00;31.00;;;;;;;;5039747;28;51140;-50
2022/02/16 02:46:46;;;;;;;;;34.50;28.25;;;;;;;;5040742;28;51202;-53
2022/02/16 02:49:32;;;;;;;;;33.50;29.75;;;;;;;;5040848;28;51169;-53
2022/02/16 02:52:17;;;;;;;;;37.25;28.50;;;;;;;;5043203;28;51056;-51
2022/02/16 02:55:01;;;;;;;;;38.25;30.00;;;;;;;;5051746;28;51618;-49
2022/02/16 02:57:48;;;;;;;;;35.00;30.50;;;;;;;;5053741;28;51128;-47
2022/02/16 03:00:32;;;;;;;;;36.75;30.00;;;;;;;;5041943;28;51449;-47
2022/02/16 03:03:17;;;;;;;;;31.75;30.25;;;;;;;;5051709;28;51704;-48
2022/02/16 03:06:07;;;;;;;;;40.75;30.50;;;;;;;;5053347;28;51294;-49
2022/02/16 03:08:51;;;;;;;;;32.75;30.25;;;;;;;;5052921;28;51636;-52
2022/02/16 03:11:38;;;;;;;;;37.75;32.50;;;;;;;;5052146;28;51099;-51
2022/02/16 03:14:22;;;;;;;;;39.00;30.00;;;;;;;;5047758;28;51241;-49
2022/02/16 03:17:09;;;;;;;;;37.00;30.75;;;;;;;;5045637;28;51225;-54
2022/02/16 03:19:53;;;;;;;;;37.25;30.25;;;;;;;;5044848;28;51210;-50
2022/02/16 03:22:40;;;;;;;;;39.50;30.50;;;;;;;;5043391;28;51233;-51
2022/02/16 03:25:25;;;;;;;;;33.50;28.75;;;;;;;;5046597;28;51095;-49
2022/02/16 03:28:10;;;;;;;;;41.75;34.00;;;;;;;;5055410;28;51039;-53
2022/02/16 03:30:57;;;;;;;;;39.00;30.75;;;;;;;;5044416;28;51241;-53
2022/02/16 03:33:56;;;;;;;;;34.75;28.00;;;;;;;;5044552;28;51128;-49
2022/02/16 03:36:42;;;;;;;;;35.00;31.50;;;;;;;;5047159;28;51040;-51
2022/02/16 03:39:38;;;;;;;;;34.00;32.00;;;;;;;;5040626;28;51104;-53
2022/02/16 03:42:34;;;;;;;;;38.50;32.75;;;;;;;;5046034;28;51195;-49
2022/02/16 03:45:23;;;;;;;;;38.00;32.00;;;;;;;;5044619;28;51624;-48
2022/02/16 03:48:10;;;;;;;;;41.00;31.50;;;;;;;;5054893;28;51019;-52
2022/02/16 03:50:56;;;;;;;;;36.00;29.50;;;;;;;;5051905;28;51066;-48
2022/02/16 03:53:41;;;;;;;;;44.75;31.50;;;;;;;;5043864;28;51487;-52
2022/02/16 03:56:32;;;;;;;;;41.00;30.00;;;;;;;;5055830;28;51192;-50
2022/02/16 03:59:36;;;;;;;;;35.25;29.50;;;;;;;;5042857;28;51070;-44
2022/02/16 04:02:20;;;;;;;;;40.25;31.75;;;;;;;;5050669;28;51214;-53
2022/02/16 04:05:12;;;;;;;;;34.75;31.00;;;;;;;;5048472;28;51336;-51
2022/02/16 04:07:59;;;;;;;;;38.50;33.00;;;;;;;;5047529;28;51166;-49
2022/02/16 04:10:49;;;;;;;;;38.50;31.50;;;;;;;;5043044;28;51611;-54
2022/02/16 04:13:36;;;;;;;;;36.50;31.25;;;;;;;;5041824;28;51072;-50
2022/02/16 04:16:22;;;;;;;;;38.00;31.25;;;;;;;;5044257;28;50962;-52
2022/02/16 04:19:11;;;;;;;;;34.75;29.50;;;;;;;;5034122;28;51444;-50
2022/02/16 04:21:55;;;;;;;;;36.25;29.25;;;;;;;;5046537;28;51546;-47
2022/02/16 04:24:42;;;;;;;;;43.25;31.75;;;;;;;;5044987;28;51189;-50
2022/02/16 04:27:29;;;;;;;;;35.00;30.00;;;;;;;;5041684;28;51172;-50
2022/02/16 04:30:17;;;;;;;;;37.25;31.50;;;;;;;;5041072;28;51305;-49
2022/02/16 04:33:03;;;;;;;;;36.75;27.75;;;;;;;;5047860;28;51046;-50
2022/02/16 04:35:48;;;;;;;;;39.25;29.75;;;;;;;;5045674;28;51865;-50
2022/02/16 04:38:34;;;;;;;;;36.00;30.25;;;;;;;;5048615;28;51139;-52
2022/02/16 04:41:20;;;;;;;;;36.00;31.25;;;;;;;;5047764;28;51348;-51
2022/02/16 04:44:06;;;;;;;;;36.75;31.75;;;;;;;;5046132;28;51277;-53
2022/02/16 04:46:52;;;;;;;;;37.75;30.00;;;;;;;;5046517;28;51822;-50
2022/02/16 04:49:36;;;;;;;;;35.75;29.25;;;;;;;;5041208;28;51241;-50
2022/02/16 04:52:21;;;;;;;;;38.75;31.50;;;;;;;;5042588;28;51096;-51
2022/02/16 04:55:09;;;;;;;;;43.75;32.00;;;;;;;;5055003;28;51433;-49
2022/02/16 04:57:55;;;;;;;;;33.25;29.50;;;;;;;;5043633;28;51205;-52
2022/02/16 05:00:41;;;;;;;;;40.25;30.50;;;;;;;;5049756;28;51394;-52
2022/02/16 05:03:38;;;;;;;;;32.00;28.50;;;;;;;;5040019;28;51330;-53
2022/02/16 05:06:24;;;;;;;;;32.00;24.50;;;;;;;;5042003;28;51187;-49
2022/02/16 05:09:13;;;;;;;;;37.00;31.75;;;;;;;;5048275;28;51531;-48
2022/02/16 05:11:57;;;;;;;;;34.50;29.25;;;;;;;;5043920;28;51111;-50
2022/02/16 05:14:43;;;;;;;;;43.25;32.00;;;;;;;;5044011;28;51649;-52
2022/02/16 05:17:31;;;;;;;;;39.50;31.25;;;;;;;;5043367;28;51376;-52
2022/02/16 05:20:21;;;;;;;;;41.00;32.50;;;;;;;;5040378;28;51119;-50
2022/02/16 05:23:06;;;;;;;;;30.00;26.50;;;;;;;;5047775;28;51144;-48
2022/02/16 05:25:53;;;;;;;;;33.00;29.50;;;;;;;;5040454;28;51215;-51
2022/02/16 05:28:40;;;;;;;;;35.25;30.50;;;;;;;;5050269;28;51082;-49
2022/02/16 05:31:48;;;;;;;;;37.75;31.25;;;;;;;;5046723;28;51093;-46
2022/02/16 05:34:34;;;;;;;;;31.25;25.75;;;;;;;;5053792;28;51320;-50
2022/02/16 05:37:20;;;;;;;;;34.50;30.00;;;;;;;;5039201;28;51125;-51
2022/02/16 05:40:26;;;;;;;;;43.75;32.75;;;;;;;;5046347;28;51684;-46
2022/02/16 05:43:14;;;;;;;;;36.25;28.25;;;;;;;;5052236;28;51243;-53
2022/02/16 05:45:59;;;;;;;;;38.75;30.75;;;;;;;;5044783;28;51099;-49
2022/02/16 05:48:43;;;;;;;;;42.25;29.75;;;;;;;;5048219;28;51162;-50
2022/02/16 05:51:53;;;;;;;;;45.50;33.50;;;;;;;;5045286;28;51359;-51
2022/02/16 05:54:37;;;;;;;;;39.50;32.25;;;;;;;;5042568;28;51298;-51
2022/02/16 05:57:26;;;;;;;;;44.00;32.00;;;;;;;;5040876;28;51085;-49
2022/02/16 06:00:10;;;;;;;;;39.50;30.75;;;;;;;;5043839;28;52416;-52
2022/02/16 06:02:58;;;;;;;;;38.25;29.00;;;;;;;;5045547;28;51137;-65
2022/02/16 06:05:44;;;;;;;;;35.75;31.00;;;;;;;;5054443;28;51056;-63
2022/02/16 06:08:31;;;;;;;;;37.75;31.25;;;;;;;;5046489;28;51108;-63
2022/02/16 06:11:16;;;;;;;;;36.75;30.00;;;;;;;;5056648;28;51138;-66
2022/02/16 06:14:00;;;;;;;;;39.50;32.50;;;;;;;;5038500;28;51115;-64
2022/02/16 06:16:48;;;;;;;;;42.25;33.50;;;;;;;;5038980;28;51131;-64
2022/02/16 06:19:36;;;;;;;;;37.50;31.50;;;;;;;;5038499;28;51093;-64
2022/02/16 06:22:21;;;;;;;;;41.50;32.50;;;;;;;;5042626;28;51187;-65
2022/02/16 06:25:07;;;;;;;;;35.25;32.00;;;;;;;;5037802;28;51151;-64
2022/02/16 06:27:52;;;;;;;;;38.75;32.25;;;;;;;;5038193;28;51139;-65
2022/02/16 06:30:36;;;;;;;;;45.50;31.50;;;;;;;;5027022;28;51930;-64
2022/02/16 06:33:22;;;;;;;;;44.50;32.75;;;;;;;;5038495;28;51502;-64
2022/02/16 06:36:07;;;;;;;;;36.50;32.50;;;;;;;;5037908;28;51120;-63
2022/02/16 06:38:52;;;;;;;;;42.50;32.00;;;;;;;;5040945;28;51217;-63
2022/02/16 06:41:36;;;;;;;;;43.25;34.75;;;;;;;;5040501;28;51310;-64
2022/02/16 06:44:22;;;;;;;;;45.75;34.00;;;;;;;;5037775;28;51360;-63
2022/02/16 06:47:27;;;;;;;;;39.00;32.50;;;;;;;;5038678;28;51107;-63
2022/02/16 06:50:12;;;;;;;;;44.00;34.50;;;;;;;;5058756;28;51165;-64
2022/02/16 06:52:56;;;;;;;;;40.75;33.50;;;;;;;;5041995;28;51063;-64
2022/02/16 06:55:41;;;;;;;;;36.75;30.25;;;;;;;;5041977;28;51702;-65
2022/02/16 06:58:29;;;;;;;;;40.00;33.50;;;;;;;;5058636;28;52373;-65
2022/02/16 07:01:14;;;;;;;;;37.25;32.25;;;;;;;;5061737;28;51261;-65
2022/02/16 07:04:01;;;;;;;;;35.25;31.25;;;;;;;;5062059;28;51485;-64
2022/02/16 07:07:12;;;;;;;;;44.25;33.00;;;;;;;;5061582;28;51391;-66
2022/02/16 07:10:00;;;;;;;;;35.25;31.25;;;;;;;;5061925;28;51058;-65
2022/02/16 07:12:54;;;;;;;;;40.75;33.75;;;;;;;;5061801;28;51100;-64
2022/02/16 07:15:40;;;;;;;;;38.75;31.25;;;;;;;;5061705;28;51371;-67
2022/02/16 07:18:29;;;;;;;;;39.25;31.00;;;;;;;;5043911;28;51175;-66
2022/02/16 07:21:19;;;;;;;;;39.75;32.25;;;;;;;;5041079;28;51303;-64
2022/02/16 07:24:03;;;;;;;;;37.75;29.75;;;;;;;;5041764;28;51116;-64
2022/02/16 07:26:48;;;;;;;;;34.50;30.50;;;;;;;;5048566;28;51170;-65
2022/02/16 07:29:46;;;;;;;;;39.75;30.50;;;;;;;;5047006;28;51062;-67
2022/02/16 07:32:30;;;;;;;;;33.50;30.00;;;;;;;;5061958;28;51230;-66
2022/02/16 07:35:16;;;;;;;;;30.25;28.75;;;;;;;;5061386;28;51079;-65
2022/02/16 07:38:00;;;;;;;;;34.25;28.75;;;;;;;;5051693;28;51072;-65
2022/02/16 07:41:06;;;;;;;;;37.25;27.50;;;;;;;;5056171;28;51162;-67
2022/02/16 07:43:51;;;;;;;;;32.50;28.75;;;;;;;;5060740;28;51114;-66
2022/02/16 07:46:36;;;;;;;;;34.00;26.75;;;;;;;;5051361;28;51181;-65
2022/02/16 07:49:21;;;;;;;;;43.75;32.75;;;;;;;;5060858;28;51111;-65
2022/02/16 07:52:16;;;;;;;;;39.50;32.00;;;;;;;;5060696;28;51100;-64
2022/02/16 07:55:00;;;;;;;;;37.75;30.25;;;;;;;;5061463;28;51055;-65
2022/02/16 07:57:48;;;;;;;;;36.25;31.00;;;;;;;;5061234;28;51455;-65
2022/02/16 08:00:40;;;;;;;;;39.00;31.00;;;;;;;;5051118;28;51178;-65
2022/02/16 08:03:30;;;;;;;;;38.25;29.00;;;;;;;;5060436;28;51096;-65
2022/02/16 08:06:18;;;;;;;;;37.00;27.00;;;;;;;;5054781;28;50997;-66
2022/02/16 08:09:03;;;;;;;;;40.50;29.25;;;;;;;;5060825;28;51191;-65
2022/02/16 08:11:50;;;;;;;;;33.00;28.75;;;;;;;;5041311;28;51104;-64
2022/02/16 08:14:36;;;;;;;;;33.25;30.00;;;;;;;;5042640;28;51061;-63
2022/02/16 08:17:20;;;;;;;;;35.25;31.50;;;;;;;;5039997;28;51348;-64
2022/02/16 08:20:06;;;;;;;;;31.00;29.25;;;;;;;;5039940;28;51183;-65
2022/02/16 08:22:52;;;;;;;;;30.50;26.75;;;;;;;;5051055;28;51732;-63
2022/02/16 08:25:37;;;;;;;;;29.75;28.25;;;;;;;;5059568;28;51116;-65
2022/02/16 08:28:21;;;;;;;;;30.25;26.25;;;;;;;;5059528;28;51138;-65
2022/02/16 08:31:06;;;;;;;;;31.25;27.25;;;;;;;;5053130;28;51099;-65
2022/02/16 08:33:56;;;;;;;;;32.50;29.00;;;;;;;;5044060;28;51091;-65
2022/02/16 08:36:42;;;;;;;;;28.50;26.00;;;;;;;;5042610;28;52237;-66
2022/02/16 08:39:27;;;;;;;;;26.50;25.00;;;;;;;;5050388;28;51268;-65
2022/02/16 08:42:11;;;;;;;;;34.00;29.00;;;;;;;;5044532;28;51253;-64
2022/02/16 08:44:59;;;;;;;;;37.25;31.75;;;;;;;;5039455;28;51204;-65
2022/02/16 08:47:44;;;;;;;;;27.50;24.50;;;;;;;;5057030;28;51557;-64
2022/02/16 08:50:39;;;;;;;;;25.50;18.75;;;;;;;;5039725;28;51150;-64
2022/02/16 08:53:33;;;;;;;;;33.50;29.00;;;;;;;;5043941;28;51064;-64
2022/02/16 08:56:19;;;;;;;;;29.00;24.50;;;;;;;;5049331;28;51189;-64
2022/02/16 08:59:05;;;;;;;;;26.25;22.25;;;;;;;;5045533;28;51130;-66
2022/02/16 09:01:51;;;;;;;;;34.00;26.50;;;;;;;;5045918;28;51654;-65
2022/02/16 09:04:38;;;;;;;;;31.75;25.50;;;;;;;;5046401;28;51150;-65
2022/02/16 09:07:30;;;;;;;;;26.75;22.75;;;;;;;;5050673;28;51320;-64
2022/02/16 09:10:17;;;;;;;;;30.25;23.50;;;;;;;;5040547;28;51202;-64
2022/02/16 09:13:06;;;;;;;;;34.50;27.50;;;;;;;;5054088;28;51486;-65
2022/02/16 09:16:05;;;;;;;;;32.00;25.75;;;;;;;;5050314;28;51135;-66
2022/02/16 09:19:02;;;;;;;;;27.25;23.00;;;;;;;;5053709;28;51086;-60
2022/02/16 09:21:47;;;;;;;;;30.00;27.25;;;;;;;;5042378;28;52013;-60
2022/02/16 09:24:34;;;;;;;;;35.00;29.00;;;;;;;;5043699;28;51908;-61
2022/02/16 09:27:19;;;;;;;;;31.75;25.75;;;;;;;;5028183;28;51223;-63
2022/02/16 09:30:05;;;;;;;;;25.50;23.25;;;;;;;;5042292;28;51121;-62
2022/02/16 09:32:52;;;;;;;;;30.00;26.75;;;;;;;;5042483;28;51236;-64
2022/02/16 09:35:58;;;;;;;;;29.00;24.75;;;;;;;;5048183;28;50992;-61
2022/02/16 09:38:48;;;;;;;;;26.75;24.50;;;;;;;;5047692;28;51567;-61
2022/02/16 09:41:34;;;;;;;;;33.75;26.00;;;;;;;;5053251;28;51161;-57
2022/02/16 09:44:36;;;;;;;;;30.50;23.00;;;;;;;;5042310;28;51092;-52
2022/02/16 09:47:27;;;;;;;;;27.75;23.75;;;;;;;;5058739;28;51064;-48
2022/02/16 09:50:15;;;;;;;;;29.50;25.00;;;;;;;;5048061;28;51104;-55
2022/02/16 09:53:02;;;;;;;;;30.75;26.75;;;;;;;;5038620;28;51187;-52
2022/02/16 09:55:49;;;;;;;;;33.00;25.00;;;;;;;;5038889;28;51112;-51
2022/02/16 09:58:40;;;;;;;;;26.00;22.25;;;;;;;;5034946;28;51203;-55
2022/02/16 10:01:25;;;;;;;;;29.25;25.50;;;;;;;;5043765;28;51171;-54
2022/02/16 10:04:30;;;;;;;;;28.75;23.75;;;;;;;;5040804;28;51065;-54
2022/02/16 10:07:30;;;;;;;;;29.25;22.75;;;;;;;;5057756;28;51167;-51
2022/02/16 10:10:17;;;;;;;;;30.75;24.00;;;;;;;;5039109;28;51350;-53
2022/02/16 10:13:18;;;;;;;;;30.00;22.75;;;;;;;;5038283;28;51434;-48
2022/02/16 10:16:04;;;;;;;;;24.25;22.75;;;;;;;;5040036;28;51077;-51
2022/02/16 10:19:00;;;;;;;;;27.00;21.50;;;;;;;;5036610;28;51377;-55
2022/02/16 10:22:10;;;;;;;;;26.75;24.50;;;;;;;;5041187;28;51332;-48
2022/02/16 10:25:08;;;;;;;;;23.00;20.50;;;;;;;;5044855;28;51397;-51
2022/02/16 10:28:13;;;;;;;;;29.25;23.00;;;;;;;;5051236;28;51115;-51
2022/02/16 10:30:59;;;;;;;;;24.75;22.50;;;;;;;;5045541;28;51115;-52
2022/02/16 10:34:08;;;;;;;;;28.75;24.25;;;;;;;;5053443;28;51138;-54
2022/02/16 10:37:13;;;;;;;;;28.50;23.25;;;;;;;;5052756;28;51178;-52
2022/02/16 10:39:59;;;;;;;;;24.25;20.75;;;;;;;;5044201;28;51532;-51
2022/02/16 10:42:56;;;;;;;;;23.25;20.25;;;;;;;;5046611;28;51155;-52
2022/02/16 10:45:46;;;;;;;;;24.75;24.75;;;;;;;;5047889;28;51313;-52
2022/02/16 10:48:42;;;;;;;;;27.00;23.25;;;;;;;;5044810;28;51197;-48
2022/02/16 10:51:54;;;;;;;;;29.75;25.75;;;;;;;;5042168;28;51146;-52
2022/02/16 10:55:02;;;;;;;;;24.25;21.50;;;;;;;;5044442;28;51131;-56
2022/02/16 10:57:51;;;;;;;;;30.00;25.25;;;;;;;;5046478;28;51782;-55
2022/02/16 11:00:38;;;;;;;;;21.75;21.75;;;;;;;;5044534;28;51155;-55
2022/02/16 11:03:47;;;;;;;;;29.75;25.50;;;;;;;;5042517;28;51143;-52
2022/02/16 11:06:41;;;;;;;;;25.75;22.50;;;;;;;;5043150;28;51067;-52
2022/02/16 11:09:43;;;;;;;;;27.50;24.50;;;;;;;;5042656;28;51587;-57
2022/02/16 11:12:28;;;;;;;;;29.75;27.00;;;;;;;;5061601;28;51093;-54
2022/02/16 11:15:13;;;;;;;;;26.00;23.00;;;;;;;;5055020;28;51199;-49
2022/02/16 11:18:19;;;;;;;;;25.25;23.00;;;;;;;;5045161;28;51154;-51
2022/02/16 11:21:12;;;;;;;;;29.25;23.00;;;;;;;;5050311;28;51124;-54
2022/02/16 11:23:57;;;;;;;;;31.50;25.75;;;;;;;;5048326;28;51435;-54
2022/02/16 11:26:45;;;;;;;;;33.25;24.75;;;;;;;;5054048;28;51132;-54
2022/02/16 11:29:31;;;;;;;;;30.00;24.50;;;;;;;;5047328;28;50950;-54
2022/02/16 11:32:25;;;;;;;;;25.00;23.75;;;;;;;;5044136;28;51369;-58
2022/02/16 11:35:47;;;;;;;;;25.25;20.50;;;;;;;;5043826;28;52079;-53
2022/02/16 11:38:41;;;;;;;;;27.75;21.00;;;;;;;;5041898;28;51202;-53
2022/02/16 11:41:27;;;;;;;;;28.75;25.00;;;;;;;;5041389;28;51080;-54
2022/02/16 11:44:14;;;;;;;;;23.00;21.50;;;;;;;;5041004;28;51604;-53
2022/02/16 11:47:00;;;;;;;;;29.25;22.50;;;;;;;;5047640;28;51123;-55
2022/02/16 11:49:47;;;;;;;;;28.75;24.00;;;;;;;;5046020;28;51586;-48
2022/02/16 11:52:35;;;;;;;;;29.00;24.50;;;;;;;;5057100;28;51095;-55
2022/02/16 11:55:36;;;;;;;;;22.50;19.75;;;;;;;;5042545;28;51052;-53
2022/02/16 11:58:23;;;;;;;;;29.75;22.75;;;;;;;;5047161;28;51226;-48
2022/02/16 12:02:00;;;;;;;;;31.25;24.50;;;;;;;;5040671;28;51557;-53
2022/02/16 12:05:10;;;;;;;;;27.25;22.75;;;;;;;;5023577;28;51182;-52
2022/02/16 12:08:10;;;;;;;;;28.00;24.75;;;;;;;;5061245;28;51091;-52
2022/02/16 12:11:30;;;;;;;;;29.75;23.25;;;;;;;;5060768;28;51158;-50
2022/02/16 12:14:18;;;;;;;;;26.75;25.00;;;;;;;;5055621;28;51476;-52
2022/02/16 12:17:13;;;;;;;;;30.50;21.75;;;;;;;;5061152;28;51579;-51
2022/02/16 12:20:01;;;;;;;;;28.25;24.75;;;;;;;;5060698;28;51158;-53
2022/02/16 12:22:47;;;;;;;;;27.75;25.50;;;;;;;;5041595;28;51060;-52
2022/02/16 12:25:33;;;;;;;;;15.50;13.50;;;;;;;;5040294;28;51139;-49
2022/02/16 12:28:39;;;;;;;;;25.00;21.25;;;;;;;;5040569;28;51182;-54
2022/02/16 12:31:34;;;;;;;;;28.00;23.00;;;;;;;;5040004;28;51130;-53
2022/02/16 12:34:35;;;;;;;;;24.75;21.00;;;;;;;;5056750;28;51047;-51
2022/02/16 12:37:32;;;;;;;;;26.75;21.75;;;;;;;;5059602;28;51585;-52
2022/02/16 12:40:27;;;;;;;;;28.00;21.50;;;;;;;;5039820;28;51205;-52
2022/02/16 12:43:18;;;;;;;;;27.00;22.75;;;;;;;;5039551;28;51232;-53
2022/02/16 12:46:32;;;;;;;;;26.00;23.75;;;;;;;;5040507;28;51142;-54
2022/02/16 12:49:21;;;;;;;;;25.75;24.25;;;;;;;;5060471;28;51104;-51
2022/02/16 12:52:07;;;;;;;;;24.50;23.25;;;;;;;;5059792;28;51433;-53
2022/02/16 12:54:54;;;;;;;;;25.75;24.50;;;;;;;;5060251;28;52165;-53
2022/02/16 12:57:43;;;;;;;;;22.25;22.00;;;;;;;;5044514;28;51191;-55
2022/02/16 13:00:52;;;;;;;;;22.50;21.75;;;;;;;;5042455;28;50994;-54
2022/02/16 13:03:38;;;;;;;;;25.50;21.50;;;;;;;;5052696;28;51225;-50
2022/02/16 13:06:44;;;;;;;;;26.50;24.00;;;;;;;;5039551;28;51056;-51
2022/02/16 13:09:43;;;;;;;;;26.75;21.75;;;;;;;;5039693;28;51453;-49
2022/02/16 13:12:54;;;;;;;;;25.25;21.00;;;;;;;;5039925;28;51136;-54
2022/02/16 13:15:39;;;;;;;;;25.50;21.00;;;;;;;;5044366;28;51088;-53
2022/02/16 13:18:39;;;;;;;;;21.50;20.50;;;;;;;;5046823;28;51165;-51
2022/02/16 13:21:25;;;;;;;;;29.25;25.50;;;;;;;;5040186;28;51134;-51
2022/02/16 13:24:14;;;;;;;;;29.50;25.25;;;;;;;;5039838;28;51126;-49
2022/02/16 13:27:02;;;;;;;;;27.50;20.25;;;;;;;;5040706;28;51317;-52
2022/02/16 13:30:24;;;;;;;;;27.00;22.00;;;;;;;;5038746;28;51151;-53
2022/02/16 13:33:34;;;;;;;;;24.75;21.25;;;;;;;;4957508;28;51358;-51
2022/02/16 13:36:26;;;;;;;;;26.50;21.50;;;;;;;;5022465;28;51515;-52
2022/02/16 13:39:26;;;;;;;;;28.50;23.00;;;;;;;;5040582;28;51215;-54
2022/02/16 13:42:16;;;;;;;;;26.25;21.50;;;;;;;;5044313;28;51146;-51
2022/02/16 13:45:26;;;;;;;;;22.75;21.50;;;;;;;;5036292;28;51397;-52
2022/02/16 13:48:11;;;;;;;;;23.25;22.25;;;;;;;;5059179;28;51221;-51
2022/02/16 13:51:01;;;;;;;;;28.00;21.25;;;;;;;;5055957;28;51190;-50
2022/02/16 13:53:46;;;;;;;;;32.75;28.50;;;;;;;;5044226;28;51113;-51
2022/02/16 13:56:32;;;;;;;;;23.50;21.75;;;;;;;;5038073;28;51034;-53
2022/02/16 13:59:16;;;;;;;;;24.50;21.25;;;;;;;;5049153;28;51146;-51
2022/02/16 14:02:16;;;;;;;;;22.25;20.50;;;;;;;;5058215;28;51534;-49
2022/02/16 14:05:05;;;;;;;;;22.75;21.00;;;;;;;;5046633;28;51413;-52
2022/02/16 14:07:50;;;;;;;;;31.00;23.25;;;;;;;;5041406;28;51128;-51
2022/02/16 14:10:39;;;;;;;;;29.00;25.25;;;;;;;;5045670;28;51379;-49
2022/02/16 14:13:25;;;;;;;;;27.00;23.50;;;;;;;;5034569;28;51584;-50
2022/02/16 14:16:10;;;;;;;;;27.25;23.00;;;;;;;;5039985;28;51535;-50
2022/02/16 14:22:09;;;;;;;;;26.25;21.75;;;;;;;;5043188;28;51448;-54
2022/02/16 14:24:53;;;;;;;;;32.75;25.50;;;;;;;;5052037;28;51308;-47
2022/02/16 14:27:40;;;;;;;;;34.25;25.25;;;;;;;;5045463;28;51582;-51
2022/02/16 14:30:26;;;;;;;;;26.25;23.50;;;;;;;;5038208;28;51155;-52
2022/02/16 14:33:11;;;;;;;;;24.75;24.00;;;;;;;;5038622;28;51104;-53
2022/02/16 14:35:57;;;;;;;;;25.25;21.00;;;;;;;;5038903;28;51103;-50
2022/02/16 14:38:51;;;;;;;;;31.50;25.75;;;;;;;;5038720;28;51620;-50
2022/02/16 14:41:36;;;;;;;;;29.25;23.75;;;;;;;;5038201;28;51056;-52
2022/02/16 14:44:31;;;;;;;;;27.50;22.00;;;;;;;;5038603;28;51001;-54
2022/02/16 14:47:18;;;;;;;;;27.50;24.25;;;;;;;;5041168;28;51116;-51
2022/02/16 14:50:03;;;;;;;;;28.00;23.50;;;;;;;;5039554;28;51385;-51
2022/02/16 14:52:48;;;;;;;;;24.50;21.25;;;;;;;;5039668;28;51198;-53
2022/02/16 14:55:50;;;;;;;;;26.00;24.00;;;;;;;;5045359;28;51426;-49
2022/02/16 14:58:37;;;;;;;;;31.75;22.75;;;;;;;;5029692;28;51155;-51
2022/02/16 15:01:23;;;;;;;;;25.75;23.00;;;;;;;;5058487;28;51035;-53
2022/02/16 15:04:10;;;;;;;;;29.50;23.50;;;;;;;;5042679;28;51498;-56
2022/02/16 15:06:54;;;;;;;;;28.75;24.25;;;;;;;;5057819;28;51163;-53
2022/02/16 15:09:38;;;;;;;;;19.25;18.00;;;;;;;;5061282;28;51756;-50
2022/02/16 15:12:23;;;;;;;;;27.00;22.25;;;;;;;;5062112;28;51562;-52
2022/02/16 15:15:36;;;;;;;;;34.25;24.25;;;;;;;;5055403;28;51142;-53
2022/02/16 15:18:22;;;;;;;;;25.25;21.75;;;;;;;;5049489;28;51348;-54
2022/02/16 15:21:09;;;;;;;;;29.00;23.00;;;;;;;;5041354;28;51108;-56
2022/02/16 15:24:08;;;;;;;;;28.25;25.50;;;;;;;;5041981;28;51650;-53
2022/02/16 15:26:52;;;;;;;;;27.00;20.75;;;;;;;;5037592;28;50997;-50
2022/02/16 15:29:37;;;;;;;;;29.25;24.75;;;;;;;;5051636;28;51460;-50
2022/02/16 15:32:22;;;;;;;;;28.75;25.00;;;;;;;;5041414;28;51142;-52
2022/02/16 15:35:06;;;;;;;;;26.00;22.25;;;;;;;;5041551;28;51199;-53
2022/02/16 15:37:50;;;;;;;;;27.75;24.50;;;;;;;;5041499;28;51033;-52
2022/02/16 15:40:38;;;;;;;;;28.25;25.00;;;;;;;;5041406;28;51151;-50
2022/02/16 15:43:23;;;;;;;;;26.75;22.75;;;;;;;;5041204;28;51571;-53
2022/02/16 15:46:08;;;;;;;;;26.50;23.75;;;;;;;;5041232;28;51057;-53
2022/02/16 15:48:53;;;;;;;;;25.25;23.50;;;;;;;;5041341;28;51103;-55
2022/02/16 15:51:38;;;;;;;;;32.00;24.00;;;;;;;;5051367;28;51220;-54
2022/02/16 15:54:25;;;;;;;;;26.50;23.00;;;;;;;;5057690;28;52024;-52
2022/02/16 15:57:10;;;;;;;;;26.75;22.75;;;;;;;;5061723;28;51108;-52
2022/02/16 15:59:57;;;;;;;;;24.00;22.25;;;;;;;;5061511;28;51314;-49
2022/02/16 16:02:43;;;;;;;;;27.25;23.25;;;;;;;;5060969;28;51545;-50
2022/02/16 16:05:28;;;;;;;;;25.50;21.00;;;;;;;;5060374;28;51055;-52
2022/02/16 16:08:13;;;;;;;;;35.50;29.00;;;;;;;;5044498;28;51648;-51
2022/02/16 16:11:04;;;;;;;;;30.50;25.25;;;;;;;;5040967;28;50998;-49
2022/02/16 16:13:48;;;;;;;;;29.00;25.25;;;;;;;;5058647;28;51099;-56
2022/02/16 16:16:54;;;;;;;;;32.75;28.75;;;;;;;;5060775;28;51635;-51
2022/02/16 16:19:48;;;;;;;;;29.75;28.00;;;;;;;;5054502;28;51691;-53
2022/02/16 16:22:34;;;;;;;;;52.75;41.00;;;;;;;;5048441;28;51121;-53
2022/02/16 16:25:28;;;;;;;;;25.00;21.25;;;;;;;;5060634;28;51517;-54
2022/02/16 16:28:13;;;;;;;;;37.75;31.75;;;;;;;;5038994;28;51805;-54
2022/02/16 16:30:59;;;;;;;;;43.50;34.00;;;;;;;;5040415;28;51175;-53